Buoy 41602

sailwx.info

Track history (hours):
 
Tides and Currents Weather Stations Pressure Air Temp Water Temp Dewpoint Dewpoint Depression Visibility Wind Speed Wind Dir Waves Ship Positions

Drifting buoy 41602

Last reported at 2015-Jun-05 10:24 UTC. Time now 2015-Sep-04 01:37 UTC.
Position N 22°56' W 080°01'.
Warning: this ship's position is months out of date.

Water temperature 25.7 ° C

Date/timePositionNaut miles runAvg speedWind from/ knotsBaromVisibWave heightAir tempDewpointWater temp
2015-Jun-05 10:24N 22°56' W 080°01'0 0.0 25.7
2015-Jun-05 07:02N 22°56' W 080°01'0 0.0 25.3
2015-Jun-05 03:03N 22°56' W 080°01'3 0.8 26.7
2015-Jun-04 22:48N 22°59' W 079°59'0 0.0 27.6
2015-Jun-04 21:12N 22°59' W 079°59'0 0.0 28.8
2015-Jun-04 15:03N 22°59' W 079°59'0 0.0 27.0
2015-Jun-04 09:56N 22°59' W 079°59'0 0.0 25.5
2015-Jun-04 07:12N 22°59' W 079°59'0 0.0 25.1
2015-Jun-04 02:38N 22°59' W 079°59'0 0.0 26.6
2015-Jun-04 01:48N 22°59' W 079°59'0 0.0 26.7
2015-Jun-03 11:28N 22°59' W 079°59'0 0.1 25.3
2015-Jun-03 10:03N 22°59' W 079°59'0 0.0 24.9
2015-Jun-03 00:11N 22°59' W 079°59'0 0.0 25.9
2015-Jun-02 22:02N 22°59' W 079°59'0 0.9 24.2
2015-Jun-02 21:58N 22°59' W 079°59'0 0.0 24.0
2015-Jun-02 18:54N 22°59' W 079°59'0 0.0 24.7
2015-Jun-02 14:52N 22°59' W 079°59'0 0.3 27.8
2015-Jun-02 14:02N 22°59' W 079°59'0 0.0 27.5
2015-Jun-02 11:54N 22°59' W 079°59'0 0.1 27.1
2015-Jun-02 10:46N 22°59' W 079°59'0 0.3 26.8
2015-Jun-02 10:20N 22°59' W 079°59'0 1.1 26.4
2015-Jun-02 10:13N 22°59' W 079°59'0 0.1 26.4
2015-Jun-02 07:35N 22°59' W 079°59'0 0.1 26.4
2015-Jun-02 02:30N 22°59' W 079°59'0 1.3 29.0
2015-Jun-02 02:24N 22°59' W 079°59'0 0.0 29.0
2015-Jun-02 01:42N 22°59' W 079°59'0 0.0 29.3
2015-Jun-02 00:46N 22°59' W 079°59'0 0.1 29.6
2015-Jun-01 22:22N 22°59' W 079°59'0 0.0 30.6
2015-Jun-01 21:49N 22°59' W 079°59'110.6 29.1
2015-Jun-01 21:43N 23°00' W 079°58'0 0.3 28.9
2015-Jun-01 20:47N 22°60' W 079°58'   29.1
Track history (hours):
 
Tides and Currents Weather Stations Pressure Air Temp Water Temp Dewpoint Dewpoint Depression Visibility Wind Speed Wind Dir Waves Ship Positions

Drifting buoy 41602

Last reported at 2015-Jun-05 10:24 UTC. Time now 2015-Sep-04 01:37 UTC.
Position N 22°56' W 080°01'.
Warning: this ship's position is months out of date.

Water temperature 25.7 ° C

Date/timePositionNaut miles runAvg speedWind from/ knotsBaromVisibWave heightAir tempDewpointWater temp
2015-Jun-05 10:24N 22°56' W 080°01'0 0.0 25.7
2015-Jun-05 07:02N 22°56' W 080°01'0 0.0 25.3
2015-Jun-05 03:03N 22°56' W 080°01'3 0.8 26.7
2015-Jun-04 22:48N 22°59' W 079°59'0 0.0 27.6
2015-Jun-04 21:12N 22°59' W 079°59'0 0.0 28.8
2015-Jun-04 15:03N 22°59' W 079°59'0 0.0 27.0
2015-Jun-04 09:56N 22°59' W 079°59'0 0.0 25.5
2015-Jun-04 07:12N 22°59' W 079°59'0 0.0 25.1
2015-Jun-04 02:38N 22°59' W 079°59'0 0.0 26.6
2015-Jun-04 01:48N 22°59' W 079°59'0 0.0 26.7
2015-Jun-03 11:28N 22°59' W 079°59'0 0.1 25.3
2015-Jun-03 10:03N 22°59' W 079°59'0 0.0 24.9
2015-Jun-03 00:11N 22°59' W 079°59'0 0.0 25.9
2015-Jun-02 22:02N 22°59' W 079°59'0 0.9 24.2
2015-Jun-02 21:58N 22°59' W 079°59'0 0.0 24.0
2015-Jun-02 18:54N 22°59' W 079°59'0 0.0 24.7
2015-Jun-02 14:52N 22°59' W 079°59'0 0.3 27.8
2015-Jun-02 14:02N 22°59' W 079°59'0 0.0 27.5
2015-Jun-02 11:54N 22°59' W 079°59'0 0.1 27.1
2015-Jun-02 10:46N 22°59' W 079°59'0 0.3 26.8
2015-Jun-02 10:20N 22°59' W 079°59'0 1.1 26.4
2015-Jun-02 10:13N 22°59' W 079°59'0 0.1 26.4
2015-Jun-02 07:35N 22°59' W 079°59'0 0.1 26.4
2015-Jun-02 02:30N 22°59' W 079°59'0 1.3 29.0
2015-Jun-02 02:24N 22°59' W 079°59'0 0.0 29.0
2015-Jun-02 01:42N 22°59' W 079°59'0 0.0 29.3
2015-Jun-02 00:46N 22°59' W 079°59'0 0.1 29.6
2015-Jun-01 22:22N 22°59' W 079°59'0 0.0 30.6
2015-Jun-01 21:49N 22°59' W 079°59'110.6 29.1
2015-Jun-01 21:43N 23°00' W 079°58'0 0.3 28.9
2015-Jun-01 20:47N 22°60' W 079°58'   29.1

Dump ship's entire track history